Roy, Washington
Current Conditions -  °F | °C
As of 12:58 AM on Saturday 29 Nov 2014 (Local Time) from KGRF Reporting Station
Drizzle Drizzle  
Wind Chill: 32°   Ceiling: 9000
Heat Index: 37°   Visibility: 10mi
Dew Point: 37°   Wind: 7mph
Humidity: 97%   Direction: 160°SSE
Pressure: 29.56"   Gusts: NA
Location:  47°N, 122.54°W
Report Text: KGRF 290858Z AUTO 16006KT 10SM DZ BKN090 03/03 A2956 RMK AO2 SLP015 P0000 60000 T00300025 51008 $
Loading
Personal Weather Stations






























Interactive Weather Map New forecast layout! Learn more

10-Day Weather Forecast

Advertisements
Track Severe Weather on mobile